sensor_id;sensor_type;location;lat;lon;timestamp;temperature;humidity
7307;DHT22;3694;48.732;9.248;2023-03-14T00:01:50;8.60;99.90
7307;DHT22;3694;48.732;9.248;2023-03-14T00:04:15;8.60;99.90
7307;DHT22;3694;48.732;9.248;2023-03-14T00:06:41;8.60;99.90
7307;DHT22;3694;48.732;9.248;2023-03-14T00:09:07;8.60;99.90
7307;DHT22;3694;48.732;9.248;2023-03-14T00:11:32;8.60;99.90
7307;DHT22;3694;48.732;9.248;2023-03-14T00:13:58;8.60;99.90
7307;DHT22;3694;48.732;9.248;2023-03-14T00:16:25;8.60;99.90
7307;DHT22;3694;48.732;9.248;2023-03-14T00:18:50;8.60;99.90
7307;DHT22;3694;48.732;9.248;2023-03-14T00:21:16;8.60;99.90
7307;DHT22;3694;48.732;9.248;2023-03-14T00:23:42;8.60;99.90
7307;DHT22;3694;48.732;9.248;2023-03-14T00:26:16;8.60;99.90
7307;DHT22;3694;48.732;9.248;2023-03-14T00:28:42;8.60;99.90
7307;DHT22;3694;48.732;9.248;2023-03-14T00:31:10;8.60;99.90
7307;DHT22;3694;48.732;9.248;2023-03-14T00:33:36;8.60;99.90
7307;DHT22;3694;48.732;9.248;2023-03-14T00:36:08;8.60;99.90
7307;DHT22;3694;48.732;9.248;2023-03-14T00:38:34;8.60;99.90
7307;DHT22;3694;48.732;9.248;2023-03-14T00:41:03;8.70;99.90
7307;DHT22;3694;48.732;9.248;2023-03-14T00:43:29;8.70;99.90
7307;DHT22;3694;48.732;9.248;2023-03-14T00:45:55;8.60;99.90
7307;DHT22;3694;48.732;9.248;2023-03-14T00:48:20;8.60;99.90
7307;DHT22;3694;48.732;9.248;2023-03-14T00:50:46;8.60;99.90
7307;DHT22;3694;48.732;9.248;2023-03-14T00:53:12;8.60;99.90
7307;DHT22;3694;48.732;9.248;2023-03-14T00:55:39;8.60;99.90
7307;DHT22;3694;48.732;9.248;2023-03-14T00:58:05;8.60;99.90
7307;DHT22;3694;48.732;9.248;2023-03-14T01:00:31;8.60;99.90
7307;DHT22;3694;48.732;9.248;2023-03-14T01:02:57;8.60;99.90
7307;DHT22;3694;48.732;9.248;2023-03-14T01:05:23;8.50;99.90
7307;DHT22;3694;48.732;9.248;2023-03-14T01:07:49;8.60;99.90
7307;DHT22;3694;48.732;9.248;2023-03-14T01:10:16;8.60;99.90
7307;DHT22;3694;48.732;9.248;2023-03-14T01:12:41;8.60;99.90
7307;DHT22;3694;48.732;9.248;2023-03-14T01:15:08;8.60;99.90
7307;DHT22;3694;48.732;9.248;2023-03-14T01:17:34;8.70;99.90
7307;DHT22;3694;48.732;9.248;2023-03-14T01:20:00;8.70;99.90
7307;DHT22;3694;48.732;9.248;2023-03-14T01:22:26;8.70;99.90
7307;DHT22;3694;48.732;9.248;2023-03-14T01:24:52;8.70;99.90
7307;DHT22;3694;48.732;9.248;2023-03-14T01:27:17;8.70;99.90
7307;DHT22;3694;48.732;9.248;2023-03-14T01:29:43;8.70;99.90
7307;DHT22;3694;48.732;9.248;2023-03-14T01:32:08;8.70;99.90
7307;DHT22;3694;48.732;9.248;2023-03-14T01:34:34;8.70;99.90
7307;DHT22;3694;48.732;9.248;2023-03-14T01:36:59;8.70;99.90
7307;DHT22;3694;48.732;9.248;2023-03-14T01:39:25;8.70;99.90
7307;DHT22;3694;48.732;9.248;2023-03-14T01:41:50;8.60;99.90
7307;DHT22;3694;48.732;9.248;2023-03-14T01:44:16;8.60;99.90
7307;DHT22;3694;48.732;9.248;2023-03-14T01:46:43;8.60;99.90
7307;DHT22;3694;48.732;9.248;2023-03-14T01:54:30;8.50;99.90
7307;DHT22;3694;48.732;9.248;2023-03-14T01:57:39;8.50;99.90
7307;DHT22;3694;48.732;9.248;2023-03-14T02:00:09;8.50;99.90
7307;DHT22;3694;48.732;9.248;2023-03-14T02:02:41;8.50;99.90
7307;DHT22;3694;48.732;9.248;2023-03-14T02:05:09;8.50;99.90
7307;DHT22;3694;48.732;9.248;2023-03-14T02:07:52;8.50;99.90
7307;DHT22;3694;48.732;9.248;2023-03-14T02:10:20;8.50;99.90
7307;DHT22;3694;48.732;9.248;2023-03-14T02:12:48;8.40;99.90
7307;DHT22;3694;48.732;9.248;2023-03-14T02:15:14;8.40;99.90
7307;DHT22;3694;48.732;9.248;2023-03-14T02:17:42;8.40;99.90
7307;DHT22;3694;48.732;9.248;2023-03-14T02:22:45;8.40;99.90
7307;DHT22;3694;48.732;9.248;2023-03-14T02:25:38;8.40;99.90
7307;DHT22;3694;48.732;9.248;2023-03-14T02:28:01;8.30;99.90
7307;DHT22;3694;48.732;9.248;2023-03-14T02:30:29;8.40;99.90
7307;DHT22;3694;48.732;9.248;2023-03-14T02:33:05;8.40;99.90
7307;DHT22;3694;48.732;9.248;2023-03-14T02:35:53;8.40;99.90
7307;DHT22;3694;48.732;9.248;2023-03-14T02:41:18;8.40;99.90
7307;DHT22;3694;48.732;9.248;2023-03-14T02:43:44;8.40;99.90
7307;DHT22;3694;48.732;9.248;2023-03-14T02:46:16;8.40;99.90
7307;DHT22;3694;48.732;9.248;2023-03-14T02:48:56;8.40;99.90
7307;DHT22;3694;48.732;9.248;2023-03-14T02:51:24;8.40;99.90
7307;DHT22;3694;48.732;9.248;2023-03-14T02:53:51;8.40;99.90
7307;DHT22;3694;48.732;9.248;2023-03-14T02:56:16;8.40;99.90
7307;DHT22;3694;48.732;9.248;2023-03-14T02:58:42;8.40;99.90
7307;DHT22;3694;48.732;9.248;2023-03-14T03:01:07;8.30;99.90
7307;DHT22;3694;48.732;9.248;2023-03-14T03:03:33;8.40;99.90
7307;DHT22;3694;48.732;9.248;2023-03-14T03:05:58;8.30;99.90
7307;DHT22;3694;48.732;9.248;2023-03-14T03:08:26;8.30;99.90
7307;DHT22;3694;48.732;9.248;2023-03-14T03:10:52;8.30;99.90
7307;DHT22;3694;48.732;9.248;2023-03-14T03:13:18;8.20;99.90
7307;DHT22;3694;48.732;9.248;2023-03-14T03:15:44;8.20;99.90
7307;DHT22;3694;48.732;9.248;2023-03-14T03:18:09;8.20;99.90
7307;DHT22;3694;48.732;9.248;2023-03-14T03:20:36;8.20;99.90
7307;DHT22;3694;48.732;9.248;2023-03-14T03:23:01;8.20;99.90
7307;DHT22;3694;48.732;9.248;2023-03-14T03:25:27;8.20;99.90
7307;DHT22;3694;48.732;9.248;2023-03-14T03:27:52;8.20;99.90
7307;DHT22;3694;48.732;9.248;2023-03-14T03:30:18;8.20;99.90
7307;DHT22;3694;48.732;9.248;2023-03-14T03:32:44;8.20;99.90
7307;DHT22;3694;48.732;9.248;2023-03-14T03:35:10;8.20;99.90
7307;DHT22;3694;48.732;9.248;2023-03-14T03:37:35;8.20;99.90
7307;DHT22;3694;48.732;9.248;2023-03-14T03:40:01;8.20;99.90
7307;DHT22;3694;48.732;9.248;2023-03-14T03:42:30;8.10;99.90
7307;DHT22;3694;48.732;9.248;2023-03-14T03:44:55;8.10;99.90
7307;DHT22;3694;48.732;9.248;2023-03-14T03:47:21;8.10;99.90
7307;DHT22;3694;48.732;9.248;2023-03-14T03:49:46;8.00;99.90
7307;DHT22;3694;48.732;9.248;2023-03-14T03:52:12;8.00;99.90
7307;DHT22;3694;48.732;9.248;2023-03-14T03:54:37;8.00;99.90
7307;DHT22;3694;48.732;9.248;2023-03-14T03:57:03;8.00;99.90
7307;DHT22;3694;48.732;9.248;2023-03-14T03:59:28;8.00;99.90
7307;DHT22;3694;48.732;9.248;2023-03-14T04:01:54;8.00;99.90
7307;DHT22;3694;48.732;9.248;2023-03-14T04:04:19;7.90;99.90
7307;DHT22;3694;48.732;9.248;2023-03-14T04:06:45;7.90;99.90
7307;DHT22;3694;48.732;9.248;2023-03-14T04:09:11;7.90;99.90
7307;DHT22;3694;48.732;9.248;2023-03-14T04:11:37;7.90;99.90
7307;DHT22;3694;48.732;9.248;2023-03-14T04:14:03;7.90;99.90
7307;DHT22;3694;48.732;9.248;2023-03-14T04:16:28;7.90;99.90
7307;DHT22;3694;48.732;9.248;2023-03-14T04:18:56;7.80;99.90
7307;DHT22;3694;48.732;9.248;2023-03-14T04:21:22;7.80;99.90
7307;DHT22;3694;48.732;9.248;2023-03-14T04:23:48;7.90;99.90
7307;DHT22;3694;48.732;9.248;2023-03-14T04:26:13;7.90;99.90
7307;DHT22;3694;48.732;9.248;2023-03-14T04:28:39;7.90;99.90
7307;DHT22;3694;48.732;9.248;2023-03-14T04:31:12;7.90;99.90
7307;DHT22;3694;48.732;9.248;2023-03-14T04:33:38;7.80;99.90
7307;DHT22;3694;48.732;9.248;2023-03-14T04:36:05;7.80;99.90
7307;DHT22;3694;48.732;9.248;2023-03-14T04:38:31;7.70;99.90
7307;DHT22;3694;48.732;9.248;2023-03-14T04:40:57;7.70;99.90
7307;DHT22;3694;48.732;9.248;2023-03-14T04:43:22;7.70;99.90
7307;DHT22;3694;48.732;9.248;2023-03-14T04:45:48;7.70;99.90
7307;DHT22;3694;48.732;9.248;2023-03-14T04:48:14;7.80;99.90
7307;DHT22;3694;48.732;9.248;2023-03-14T04:50:39;7.70;99.90
7307;DHT22;3694;48.732;9.248;2023-03-14T04:53:05;7.70;99.90
7307;DHT22;3694;48.732;9.248;2023-03-14T04:55:32;7.70;99.90
7307;DHT22;3694;48.732;9.248;2023-03-14T04:57:58;7.70;99.90
7307;DHT22;3694;48.732;9.248;2023-03-14T05:00:23;7.70;99.90
7307;DHT22;3694;48.732;9.248;2023-03-14T05:02:49;7.70;99.90
7307;DHT22;3694;48.732;9.248;2023-03-14T05:05:15;7.60;99.90
7307;DHT22;3694;48.732;9.248;2023-03-14T05:07:40;7.50;99.90
7307;DHT22;3694;48.732;9.248;2023-03-14T05:10:06;7.50;99.90
7307;DHT22;3694;48.732;9.248;2023-03-14T05:12:32;7.40;99.90
7307;DHT22;3694;48.732;9.248;2023-03-14T05:14:57;7.40;99.90
7307;DHT22;3694;48.732;9.248;2023-03-14T05:17:23;7.40;99.90
7307;DHT22;3694;48.732;9.248;2023-03-14T05:19:48;7.30;99.90
7307;DHT22;3694;48.732;9.248;2023-03-14T05:22:14;7.30;99.90
7307;DHT22;3694;48.732;9.248;2023-03-14T05:24:39;7.40;99.90
7307;DHT22;3694;48.732;9.248;2023-03-14T05:27:05;7.40;99.90
7307;DHT22;3694;48.732;9.248;2023-03-14T05:29:30;7.40;99.90
7307;DHT22;3694;48.732;9.248;2023-03-14T05:31:56;7.40;99.90
7307;DHT22;3694;48.732;9.248;2023-03-14T05:34:22;7.40;99.90
7307;DHT22;3694;48.732;9.248;2023-03-14T05:36:47;7.40;99.90
7307;DHT22;3694;48.732;9.248;2023-03-14T05:39:13;7.40;99.90
7307;DHT22;3694;48.732;9.248;2023-03-14T05:41:38;7.50;99.90
7307;DHT22;3694;48.732;9.248;2023-03-14T05:44:04;7.60;99.90
7307;DHT22;3694;48.732;9.248;2023-03-14T05:46:29;7.70;99.90
7307;DHT22;3694;48.732;9.248;2023-03-14T05:48:58;7.70;99.90
7307;DHT22;3694;48.732;9.248;2023-03-14T05:51:24;7.70;99.90
7307;DHT22;3694;48.732;9.248;2023-03-14T05:53:49;7.70;99.90
7307;DHT22;3694;48.732;9.248;2023-03-14T05:56:15;7.70;99.90
7307;DHT22;3694;48.732;9.248;2023-03-14T05:58:40;7.80;99.90
7307;DHT22;3694;48.732;9.248;2023-03-14T06:01:07;7.70;99.90
7307;DHT22;3694;48.732;9.248;2023-03-14T06:03:33;7.70;99.90
7307;DHT22;3694;48.732;9.248;2023-03-14T06:05:59;7.60;99.90
7307;DHT22;3694;48.732;9.248;2023-03-14T06:08:25;7.50;99.90
7307;DHT22;3694;48.732;9.248;2023-03-14T06:10:52;7.60;99.90
7307;DHT22;3694;48.732;9.248;2023-03-14T06:13:17;7.60;99.90
7307;DHT22;3694;48.732;9.248;2023-03-14T06:15:43;7.50;99.90
7307;DHT22;3694;48.732;9.248;2023-03-14T06:18:09;7.60;99.90
7307;DHT22;3694;48.732;9.248;2023-03-14T06:20:37;7.60;99.90
7307;DHT22;3694;48.732;9.248;2023-03-14T06:23:07;7.70;99.90
7307;DHT22;3694;48.732;9.248;2023-03-14T06:25:34;7.70;99.90
7307;DHT22;3694;48.732;9.248;2023-03-14T06:27:59;7.70;99.90
7307;DHT22;3694;48.732;9.248;2023-03-14T06:30:25;7.80;99.90
7307;DHT22;3694;48.732;9.248;2023-03-14T06:32:50;7.80;99.90
7307;DHT22;3694;48.732;9.248;2023-03-14T06:35:16;7.80;99.90
7307;DHT22;3694;48.732;9.248;2023-03-14T06:37:42;7.70;99.90
7307;DHT22;3694;48.732;9.248;2023-03-14T06:40:09;7.80;99.90
7307;DHT22;3694;48.732;9.248;2023-03-14T06:42:38;7.70;99.90
7307;DHT22;3694;48.732;9.248;2023-03-14T06:45:05;7.80;99.90
7307;DHT22;3694;48.732;9.248;2023-03-14T06:47:30;7.80;99.90
7307;DHT22;3694;48.732;9.248;2023-03-14T06:49:56;7.70;99.90
7307;DHT22;3694;48.732;9.248;2023-03-14T06:52:21;7.80;99.90
7307;DHT22;3694;48.732;9.248;2023-03-14T06:54:47;7.90;99.90
7307;DHT22;3694;48.732;9.248;2023-03-14T06:57:13;7.90;99.90
7307;DHT22;3694;48.732;9.248;2023-03-14T06:59:38;8.20;99.90
7307;DHT22;3694;48.732;9.248;2023-03-14T07:02:04;8.20;99.90
7307;DHT22;3694;48.732;9.248;2023-03-14T07:04:29;8.60;99.90
7307;DHT22;3694;48.732;9.248;2023-03-14T07:06:55;8.90;99.90
7307;DHT22;3694;48.732;9.248;2023-03-14T07:09:20;9.10;99.90
7307;DHT22;3694;48.732;9.248;2023-03-14T07:11:46;9.10;99.90
7307;DHT22;3694;48.732;9.248;2023-03-14T07:14:12;9.10;99.90
7307;DHT22;3694;48.732;9.248;2023-03-14T07:16:37;9.00;99.90
7307;DHT22;3694;48.732;9.248;2023-03-14T07:19:03;9.00;99.90
7307;DHT22;3694;48.732;9.248;2023-03-14T07:21:29;9.70;99.90
7307;DHT22;3694;48.732;9.248;2023-03-14T07:23:54;9.80;99.90
7307;DHT22;3694;48.732;9.248;2023-03-14T07:26:20;9.60;99.90
7307;DHT22;3694;48.732;9.248;2023-03-14T07:28:46;9.50;99.90
7307;DHT22;3694;48.732;9.248;2023-03-14T07:31:11;9.40;99.90
7307;DHT22;3694;48.732;9.248;2023-03-14T07:33:37;9.70;99.90
7307;DHT22;3694;48.732;9.248;2023-03-14T07:36:04;10.70;99.90
7307;DHT22;3694;48.732;9.248;2023-03-14T07:38:29;11.40;99.00
7307;DHT22;3694;48.732;9.248;2023-03-14T07:41:03;12.00;97.90
7307;DHT22;3694;48.732;9.248;2023-03-14T07:43:28;12.40;96.60
7307;DHT22;3694;48.732;9.248;2023-03-14T07:45:54;12.40;96.20
7307;DHT22;3694;48.732;9.248;2023-03-14T07:48:20;11.90;95.90
7307;DHT22;3694;48.732;9.248;2023-03-14T07:50:49;11.40;96.60
7307;DHT22;3694;48.732;9.248;2023-03-14T07:53:15;11.30;97.00
7307;DHT22;3694;48.732;9.248;2023-03-14T07:55:41;11.70;97.20
7307;DHT22;3694;48.732;9.248;2023-03-14T07:58:06;12.00;96.30
7307;DHT22;3694;48.732;9.248;2023-03-14T08:00:32;12.50;96.10
7307;DHT22;3694;48.732;9.248;2023-03-14T08:02:58;12.60;94.80
7307;DHT22;3694;48.732;9.248;2023-03-14T08:05:23;13.20;95.00
7307;DHT22;3694;48.732;9.248;2023-03-14T08:07:49;13.50;92.90
7307;DHT22;3694;48.732;9.248;2023-03-14T08:10:15;12.90;93.10
7307;DHT22;3694;48.732;9.248;2023-03-14T08:12:49;12.40;93.70
7307;DHT22;3694;48.732;9.248;2023-03-14T08:15:14;12.00;94.00
7307;DHT22;3694;48.732;9.248;2023-03-14T08:17:40;12.00;94.20
7307;DHT22;3694;48.732;9.248;2023-03-14T08:20:06;12.00;94.30
7307;DHT22;3694;48.732;9.248;2023-03-14T08:22:36;12.00;94.30
7307;DHT22;3694;48.732;9.248;2023-03-14T08:25:02;12.10;94.30
7307;DHT22;3694;48.732;9.248;2023-03-14T08:27:28;12.10;94.10
7307;DHT22;3694;48.732;9.248;2023-03-14T08:29:53;12.00;94.10
7307;DHT22;3694;48.732;9.248;2023-03-14T08:32:19;11.70;93.90
7307;DHT22;3694;48.732;9.248;2023-03-14T08:34:46;11.80;94.50
7307;DHT22;3694;48.732;9.248;2023-03-14T08:37:11;11.90;94.20
7307;DHT22;3694;48.732;9.248;2023-03-14T08:39:37;11.80;93.80
7307;DHT22;3694;48.732;9.248;2023-03-14T08:42:03;11.60;94.00
7307;DHT22;3694;48.732;9.248;2023-03-14T08:44:28;11.60;94.10
7307;DHT22;3694;48.732;9.248;2023-03-14T08:46:54;11.70;93.60
7307;DHT22;3694;48.732;9.248;2023-03-14T08:49:20;12.10;93.30
7307;DHT22;3694;48.732;9.248;2023-03-14T08:51:45;12.50;93.20
7307;DHT22;3694;48.732;9.248;2023-03-14T08:54:11;12.90;92.70
7307;DHT22;3694;48.732;9.248;2023-03-14T08:56:36;13.20;92.60
7307;DHT22;3694;48.732;9.248;2023-03-14T08:59:03;13.10;91.50
7307;DHT22;3694;48.732;9.248;2023-03-14T09:01:29;13.10;91.50
7307;DHT22;3694;48.732;9.248;2023-03-14T09:03:55;12.90;91.60
7307;DHT22;3694;48.732;9.248;2023-03-14T09:06:21;12.70;91.80
7307;DHT22;3694;48.732;9.248;2023-03-14T09:08:46;12.80;91.70
7307;DHT22;3694;48.732;9.248;2023-03-14T09:11:13;13.00;91.70
7307;DHT22;3694;48.732;9.248;2023-03-14T09:13:39;13.10;92.40
7307;DHT22;3694;48.732;9.248;2023-03-14T09:16:05;12.90;92.50
7307;DHT22;3694;48.732;9.248;2023-03-14T09:18:31;12.80;93.30
7307;DHT22;3694;48.732;9.248;2023-03-14T09:20:56;12.80;93.10
7307;DHT22;3694;48.732;9.248;2023-03-14T09:23:22;12.50;93.70
7307;DHT22;3694;48.732;9.248;2023-03-14T09:25:47;12.20;93.40
7307;DHT22;3694;48.732;9.248;2023-03-14T09:28:13;11.90;94.10
7307;DHT22;3694;48.732;9.248;2023-03-14T09:30:39;11.80;94.70
7307;DHT22;3694;48.732;9.248;2023-03-14T09:33:04;11.70;94.70
7307;DHT22;3694;48.732;9.248;2023-03-14T09:35:30;11.90;94.80
7307;DHT22;3694;48.732;9.248;2023-03-14T09:37:55;12.40;94.30
7307;DHT22;3694;48.732;9.248;2023-03-14T09:40:21;12.70;94.20
7307;DHT22;3694;48.732;9.248;2023-03-14T09:42:51;12.80;93.10
7307;DHT22;3694;48.732;9.248;2023-03-14T09:45:26;12.60;93.40
7307;DHT22;3694;48.732;9.248;2023-03-14T09:47:53;12.70;93.10
7307;DHT22;3694;48.732;9.248;2023-03-14T09:50:19;12.40;93.00
7307;DHT22;3694;48.732;9.248;2023-03-14T09:53:12;12.30;93.20
7307;DHT22;3694;48.732;9.248;2023-03-14T09:55:42;12.50;93.60
7307;DHT22;3694;48.732;9.248;2023-03-14T09:58:21;12.60;93.20
7307;DHT22;3694;48.732;9.248;2023-03-14T10:00:47;12.30;93.10
7307;DHT22;3694;48.732;9.248;2023-03-14T10:05:40;12.10;93.10
7307;DHT22;3694;48.732;9.248;2023-03-14T10:08:10;12.20;93.30
7307;DHT22;3694;48.732;9.248;2023-03-14T10:10:36;12.00;93.20
7307;DHT22;3694;48.732;9.248;2023-03-14T10:13:19;12.00;93.30
7307;DHT22;3694;48.732;9.248;2023-03-14T10:16:00;12.00;93.50
7307;DHT22;3694;48.732;9.248;2023-03-14T10:18:29;12.00;93.30
7307;DHT22;3694;48.732;9.248;2023-03-14T10:21:31;12.20;93.40
7307;DHT22;3694;48.732;9.248;2023-03-14T10:24:26;12.40;93.20
7307;DHT22;3694;48.732;9.248;2023-03-14T10:27:03;12.40;93.20
7307;DHT22;3694;48.732;9.248;2023-03-14T10:29:32;12.50;93.30
7307;DHT22;3694;48.732;9.248;2023-03-14T10:32:00;12.60;93.10
7307;DHT22;3694;48.732;9.248;2023-03-14T10:36:59;13.00;93.30
7307;DHT22;3694;48.732;9.248;2023-03-14T10:39:41;13.30;92.90
7307;DHT22;3694;48.732;9.248;2023-03-14T10:44:51;13.30;92.00
7307;DHT22;3694;48.732;9.248;2023-03-14T10:47:21;13.40;91.80
7307;DHT22;3694;48.732;9.248;2023-03-14T10:49:48;13.50;92.00
7307;DHT22;3694;48.732;9.248;2023-03-14T10:52:28;13.30;91.40
7307;DHT22;3694;48.732;9.248;2023-03-14T10:54:58;13.30;92.00
7307;DHT22;3694;48.732;9.248;2023-03-14T10:57:24;13.00;91.60
7307;DHT22;3694;48.732;9.248;2023-03-14T10:59:50;13.00;91.70
7307;DHT22;3694;48.732;9.248;2023-03-14T11:02:42;12.70;91.90
7307;DHT22;3694;48.732;9.248;2023-03-14T11:05:39;12.60;93.00
7307;DHT22;3694;48.732;9.248;2023-03-14T11:11:13;12.10;94.30
7307;DHT22;3694;48.732;9.248;2023-03-14T11:16:34;12.00;95.20
7307;DHT22;3694;48.732;9.248;2023-03-14T11:19:39;11.90;94.60
7307;DHT22;3694;48.732;9.248;2023-03-14T11:27:30;11.80;94.80
7307;DHT22;3694;48.732;9.248;2023-03-14T11:35:22;11.40;95.80
7307;DHT22;3694;48.732;9.248;2023-03-14T11:40:35;11.20;96.20
7307;DHT22;3694;48.732;9.248;2023-03-14T11:43:28;11.00;96.40
7307;DHT22;3694;48.732;9.248;2023-03-14T11:45:58;11.20;96.60
7307;DHT22;3694;48.732;9.248;2023-03-14T11:51:02;11.20;97.30
7307;DHT22;3694;48.732;9.248;2023-03-14T11:53:57;11.00;97.50
7307;DHT22;3694;48.732;9.248;2023-03-14T11:56:34;10.90;97.70
7307;DHT22;3694;48.732;9.248;2023-03-14T11:59:21;10.90;97.80
7307;DHT22;3694;48.732;9.248;2023-03-14T12:07:29;11.10;98.00
7307;DHT22;3694;48.732;9.248;2023-03-14T12:09:58;11.10;98.20
7307;DHT22;3694;48.732;9.248;2023-03-14T12:12:25;11.20;97.90
7307;DHT22;3694;48.732;9.248;2023-03-14T12:14:55;11.10;98.00
7307;DHT22;3694;48.732;9.248;2023-03-14T12:17:33;11.10;97.80
7307;DHT22;3694;48.732;9.248;2023-03-14T12:22:44;10.90;98.90
7307;DHT22;3694;48.732;9.248;2023-03-14T12:30:38;10.60;99.80
7307;DHT22;3694;48.732;9.248;2023-03-14T12:35:44;11.10;98.10
7307;DHT22;3694;48.732;9.248;2023-03-14T12:40:47;11.10;95.20
7307;DHT22;3694;48.732;9.248;2023-03-14T12:43:30;11.10;94.50
7307;DHT22;3694;48.732;9.248;2023-03-14T12:46:15;10.90;94.50
7307;DHT22;3694;48.732;9.248;2023-03-14T12:48:49;10.80;94.60
7307;DHT22;3694;48.732;9.248;2023-03-14T12:51:20;10.70;93.90
7307;DHT22;3694;48.732;9.248;2023-03-14T12:53:56;10.60;93.80
7307;DHT22;3694;48.732;9.248;2023-03-14T12:59:25;11.00;92.50
7307;DHT22;3694;48.732;9.248;2023-03-14T13:01:56;11.10;92.40
7307;DHT22;3694;48.732;9.248;2023-03-14T13:04:34;11.50;92.60
7307;DHT22;3694;48.732;9.248;2023-03-14T13:07:01;11.30;91.00
7307;DHT22;3694;48.732;9.248;2023-03-14T13:12:07;10.80;85.10
7307;DHT22;3694;48.732;9.248;2023-03-14T13:14:34;10.50;84.50
7307;DHT22;3694;48.732;9.248;2023-03-14T13:17:01;10.30;85.10
7307;DHT22;3694;48.732;9.248;2023-03-14T13:19:29;10.20;86.40
7307;DHT22;3694;48.732;9.248;2023-03-14T13:22:39;10.20;86.90
7307;DHT22;3694;48.732;9.248;2023-03-14T13:25:10;10.30;86.60
7307;DHT22;3694;48.732;9.248;2023-03-14T13:27:36;10.80;86.00
7307;DHT22;3694;48.732;9.248;2023-03-14T13:30:16;11.00;79.50
7307;DHT22;3694;48.732;9.248;2023-03-14T13:32:44;10.60;76.40
7307;DHT22;3694;48.732;9.248;2023-03-14T13:35:25;10.40;76.90
7307;DHT22;3694;48.732;9.248;2023-03-14T13:38:01;10.20;76.30
7307;DHT22;3694;48.732;9.248;2023-03-14T13:40:32;9.90;77.30
7307;DHT22;3694;48.732;9.248;2023-03-14T13:45:56;9.60;78.90
7307;DHT22;3694;48.732;9.248;2023-03-14T13:48:25;9.60;76.40
7307;DHT22;3694;48.732;9.248;2023-03-14T13:51:04;9.50;76.70
7307;DHT22;3694;48.732;9.248;2023-03-14T13:53:31;9.30;76.20
7307;DHT22;3694;48.732;9.248;2023-03-14T13:55:57;9.30;76.00
7307;DHT22;3694;48.732;9.248;2023-03-14T13:58:28;9.10;76.10
7307;DHT22;3694;48.732;9.248;2023-03-14T14:01:27;9.00;77.10
7307;DHT22;3694;48.732;9.248;2023-03-14T14:03:57;9.10;76.40
7307;DHT22;3694;48.732;9.248;2023-03-14T14:06:27;9.10;75.10
7307;DHT22;3694;48.732;9.248;2023-03-14T14:08:59;9.00;73.80
7307;DHT22;3694;48.732;9.248;2023-03-14T14:11:47;8.90;71.80
7307;DHT22;3694;48.732;9.248;2023-03-14T14:14:43;8.80;72.60
7307;DHT22;3694;48.732;9.248;2023-03-14T14:17:12;8.60;71.80
7307;DHT22;3694;48.732;9.248;2023-03-14T14:19:41;8.70;71.60
7307;DHT22;3694;48.732;9.248;2023-03-14T14:22:08;8.60;68.10
7307;DHT22;3694;48.732;9.248;2023-03-14T14:24:36;8.60;68.80
7307;DHT22;3694;48.732;9.248;2023-03-14T14:29:34;8.50;67.30
7307;DHT22;3694;48.732;9.248;2023-03-14T14:34:43;8.50;69.00
7307;DHT22;3694;48.732;9.248;2023-03-14T14:37:27;8.50;69.80
7307;DHT22;3694;48.732;9.248;2023-03-14T14:39:56;8.50;69.40
7307;DHT22;3694;48.732;9.248;2023-03-14T14:42:26;8.70;69.60
7307;DHT22;3694;48.732;9.248;2023-03-14T14:44:53;8.60;70.30
7307;DHT22;3694;48.732;9.248;2023-03-14T14:47:21;8.70;69.80
7307;DHT22;3694;48.732;9.248;2023-03-14T14:49:48;8.60;70.00
7307;DHT22;3694;48.732;9.248;2023-03-14T14:52:40;8.50;70.10
7307;DHT22;3694;48.732;9.248;2023-03-14T14:55:19;8.50;70.30
7307;DHT22;3694;48.732;9.248;2023-03-14T14:57:55;8.40;69.40
7307;DHT22;3694;48.732;9.248;2023-03-14T15:00:26;8.30;69.00
7307;DHT22;3694;48.732;9.248;2023-03-14T15:02:54;8.30;70.70
7307;DHT22;3694;48.732;9.248;2023-03-14T15:05:22;8.40;69.50
7307;DHT22;3694;48.732;9.248;2023-03-14T15:07:48;8.30;69.90
7307;DHT22;3694;48.732;9.248;2023-03-14T15:10:22;8.40;70.70
7307;DHT22;3694;48.732;9.248;2023-03-14T15:12:48;8.50;71.10
7307;DHT22;3694;48.732;9.248;2023-03-14T15:15:14;8.70;70.80
7307;DHT22;3694;48.732;9.248;2023-03-14T15:17:40;8.60;69.70
7307;DHT22;3694;48.732;9.248;2023-03-14T15:20:10;8.80;70.70
7307;DHT22;3694;48.732;9.248;2023-03-14T15:22:38;8.90;69.90
7307;DHT22;3694;48.732;9.248;2023-03-14T15:25:04;8.80;69.50
7307;DHT22;3694;48.732;9.248;2023-03-14T15:27:31;8.90;68.80
7307;DHT22;3694;48.732;9.248;2023-03-14T15:29:58;8.80;68.50
7307;DHT22;3694;48.732;9.248;2023-03-14T15:32:24;8.60;68.50
7307;DHT22;3694;48.732;9.248;2023-03-14T15:34:53;8.50;69.30
7307;DHT22;3694;48.732;9.248;2023-03-14T15:37:19;8.50;69.80
7307;DHT22;3694;48.732;9.248;2023-03-14T15:39:45;8.60;71.00
7307;DHT22;3694;48.732;9.248;2023-03-14T15:42:11;8.80;70.00
7307;DHT22;3694;48.732;9.248;2023-03-14T15:44:37;8.80;69.50
7307;DHT22;3694;48.732;9.248;2023-03-14T15:47:03;8.60;69.50
7307;DHT22;3694;48.732;9.248;2023-03-14T15:49:28;8.60;69.60
7307;DHT22;3694;48.732;9.248;2023-03-14T15:51:54;8.50;70.50
7307;DHT22;3694;48.732;9.248;2023-03-14T15:54:20;8.50;70.50
7307;DHT22;3694;48.732;9.248;2023-03-14T15:56:45;8.30;70.60
7307;DHT22;3694;48.732;9.248;2023-03-14T15:59:11;8.30;71.40
7307;DHT22;3694;48.732;9.248;2023-03-14T16:01:36;8.30;71.60
7307;DHT22;3694;48.732;9.248;2023-03-14T16:04:02;8.40;71.00
7307;DHT22;3694;48.732;9.248;2023-03-14T16:06:28;8.50;71.60
7307;DHT22;3694;48.732;9.248;2023-03-14T16:08:55;8.60;71.80
7307;DHT22;3694;48.732;9.248;2023-03-14T16:11:21;8.50;71.80
7307;DHT22;3694;48.732;9.248;2023-03-14T16:13:47;8.40;71.20
7307;DHT22;3694;48.732;9.248;2023-03-14T16:16:13;8.30;71.50
7307;DHT22;3694;48.732;9.248;2023-03-14T16:18:39;8.10;71.60
7307;DHT22;3694;48.732;9.248;2023-03-14T16:21:07;8.10;71.40
7307;DHT22;3694;48.732;9.248;2023-03-14T16:23:34;8.00;71.20
7307;DHT22;3694;48.732;9.248;2023-03-14T16:26:03;8.00;71.60
7307;DHT22;3694;48.732;9.248;2023-03-14T16:28:29;8.00;71.50
7307;DHT22;3694;48.732;9.248;2023-03-14T16:31:03;8.00;72.40
7307;DHT22;3694;48.732;9.248;2023-03-14T16:33:30;7.90;72.30
7307;DHT22;3694;48.732;9.248;2023-03-14T16:36:01;7.80;72.40
7307;DHT22;3694;48.732;9.248;2023-03-14T16:38:34;7.70;72.20
7307;DHT22;3694;48.732;9.248;2023-03-14T16:41:05;7.50;72.80
7307;DHT22;3694;48.732;9.248;2023-03-14T16:43:31;7.30;73.40
7307;DHT22;3694;48.732;9.248;2023-03-14T16:45:59;7.40;73.70
7307;DHT22;3694;48.732;9.248;2023-03-14T16:48:25;7.30;74.40
7307;DHT22;3694;48.732;9.248;2023-03-14T16:50:51;7.30;75.00
7307;DHT22;3694;48.732;9.248;2023-03-14T16:53:17;7.30;74.30
7307;DHT22;3694;48.732;9.248;2023-03-14T16:55:43;7.30;74.20
7307;DHT22;3694;48.732;9.248;2023-03-14T16:58:09;7.40;73.70
7307;DHT22;3694;48.732;9.248;2023-03-14T17:00:35;7.40;74.20
7307;DHT22;3694;48.732;9.248;2023-03-14T17:03:01;7.40;74.40
7307;DHT22;3694;48.732;9.248;2023-03-14T17:05:27;7.40;74.60
7307;DHT22;3694;48.732;9.248;2023-03-14T17:07:53;7.40;75.10
7307;DHT22;3694;48.732;9.248;2023-03-14T17:10:18;7.40;75.20
7307;DHT22;3694;48.732;9.248;2023-03-14T17:12:44;7.30;75.80
7307;DHT22;3694;48.732;9.248;2023-03-14T17:15:10;7.20;76.90
7307;DHT22;3694;48.732;9.248;2023-03-14T17:17:36;7.20;76.40
7307;DHT22;3694;48.732;9.248;2023-03-14T17:20:04;7.20;76.40
7307;DHT22;3694;48.732;9.248;2023-03-14T17:22:30;7.10;76.30
7307;DHT22;3694;48.732;9.248;2023-03-14T17:24:55;7.10;76.60
7307;DHT22;3694;48.732;9.248;2023-03-14T17:27:21;7.10;77.50
7307;DHT22;3694;48.732;9.248;2023-03-14T17:29:47;7.00;78.50
7307;DHT22;3694;48.732;9.248;2023-03-14T17:32:14;6.90;79.70
7307;DHT22;3694;48.732;9.248;2023-03-14T17:34:39;6.80;80.30